createdAt,value
2023-11-21T00:02:18.551Z,56.13
2023-11-21T00:04:45.140Z,56.26
2023-11-21T00:07:11.706Z,56.56
2023-11-21T00:09:38.235Z,56.52
2023-11-21T00:12:04.986Z,56.51
2023-11-21T00:14:31.553Z,56.63
2023-11-21T00:16:58.112Z,56.43
2023-11-21T00:19:24.719Z,56.65
2023-11-21T00:21:51.757Z,56.73
2023-11-21T00:24:18.921Z,56.71
2023-11-21T00:26:45.629Z,56.50
2023-11-21T00:29:12.150Z,56.49
2023-11-21T00:31:40.078Z,56.52
2023-11-21T00:34:06.804Z,56.57
2023-11-21T00:36:33.470Z,56.89
2023-11-21T00:39:00.419Z,56.95
2023-11-21T00:41:29.905Z,56.96
2023-11-21T00:43:56.458Z,56.77
2023-11-21T00:46:23.127Z,57.18
2023-11-21T00:48:49.677Z,56.85
2023-11-21T00:51:16.216Z,56.88
2023-11-21T00:53:42.716Z,57.24
2023-11-21T00:56:09.863Z,57.03
2023-11-21T00:58:36.880Z,57.13
2023-11-21T01:01:04.730Z,57.05
2023-11-21T01:03:31.661Z,57.29
2023-11-21T01:05:58.241Z,57.19
2023-11-21T01:08:25.616Z,57.29
2023-11-21T01:10:52.224Z,57.13
2023-11-21T01:13:19.683Z,57.32
2023-11-21T01:15:46.251Z,57.00
2023-11-21T01:18:12.855Z,57.03
2023-11-21T01:20:39.409Z,57.14
2023-11-21T01:23:06.098Z,57.04
2023-11-21T01:25:32.662Z,57.46
2023-11-21T01:27:59.177Z,57.12
2023-11-21T01:30:26.819Z,57.25
2023-11-21T01:32:53.409Z,57.06
2023-11-21T01:35:20.489Z,57.20
2023-11-21T01:37:47.157Z,57.03
2023-11-21T01:40:15.643Z,57.25
2023-11-21T01:42:44.765Z,57.41
2023-11-21T01:45:13.658Z,57.22
2023-11-21T01:47:41.185Z,57.45
2023-11-21T01:50:08.061Z,57.35
2023-11-21T01:52:36.575Z,57.28
2023-11-21T01:55:03.831Z,57.10
2023-11-21T01:57:30.974Z,57.13
2023-11-21T02:00:00.020Z,57.12
2023-11-21T02:02:26.626Z,57.48
2023-11-21T02:04:53.195Z,57.42
2023-11-21T02:07:20.816Z,57.14
2023-11-21T02:09:47.371Z,57.46
2023-11-21T02:12:14.075Z,57.24
2023-11-21T02:14:40.700Z,57.31
2023-11-21T02:17:07.699Z,57.20
2023-11-21T02:19:35.730Z,57.58
2023-11-21T02:22:05.927Z,57.25
2023-11-21T02:24:32.964Z,57.23
2023-11-21T02:26:59.867Z,57.43
2023-11-21T02:29:29.731Z,57.58
2023-11-21T02:31:56.828Z,57.62
2023-11-21T02:34:24.125Z,57.45
2023-11-21T02:36:50.860Z,57.54
2023-11-21T02:39:23.418Z,57.43
2023-11-21T02:41:50.303Z,57.35
2023-11-21T02:44:16.817Z,57.68
2023-11-21T02:46:43.506Z,57.55
2023-11-21T02:49:11.528Z,57.60
2023-11-21T02:51:39.186Z,57.68
2023-11-21T02:54:07.983Z,57.59
2023-11-21T02:56:34.462Z,57.47
2023-11-21T02:59:01.379Z,57.67
2023-11-21T03:01:28.650Z,57.71
2023-11-21T03:03:56.509Z,57.78
2023-11-21T03:06:23.826Z,57.66
2023-11-21T03:08:50.330Z,57.54
2023-11-21T03:11:16.837Z,57.80
2023-11-21T03:13:43.729Z,57.89
2023-11-21T03:16:11.741Z,57.48
2023-11-21T03:18:38.885Z,57.85
2023-11-21T03:21:11.412Z,57.53
2023-11-21T03:23:38.060Z,57.59
2023-11-21T06:17:14.754Z,57.79
2023-11-21T06:19:41.487Z,57.89
2023-11-21T06:22:08.018Z,57.89
2023-11-21T06:24:34.595Z,57.63
2023-11-21T06:27:01.204Z,57.40
2023-11-21T06:29:27.997Z,57.68
2023-11-21T06:31:56.399Z,57.66
2023-11-21T06:34:23.097Z,57.30
2023-11-21T06:36:49.703Z,57.58
2023-11-21T06:39:17.852Z,57.24
2023-11-21T06:41:44.516Z,56.97
2023-11-21T06:44:11.118Z,56.34
2023-11-21T06:46:37.816Z,55.84
2023-11-21T06:49:04.469Z,55.69
2023-11-21T06:51:31.051Z,55.29
2023-11-21T06:53:57.738Z,54.99
2023-11-21T06:56:24.301Z,54.56
2023-11-21T06:58:55.280Z,54.36
2023-11-21T07:01:22.072Z,54.46
2023-11-21T07:03:48.812Z,54.67
2023-11-21T07:06:17.029Z,54.52
2023-11-21T07:08:44.959Z,54.65
2023-11-21T07:11:11.516Z,54.50
2023-11-21T07:13:38.201Z,54.91
2023-11-21T07:16:05.879Z,54.67
2023-11-21T07:18:32.482Z,54.75
2023-11-21T07:21:00.069Z,55.21
2023-11-21T07:23:27.138Z,54.89
2023-11-21T07:25:53.880Z,55.36
2023-11-21T07:28:20.441Z,55.22
2023-11-21T07:30:46.907Z,55.50
2023-11-21T07:33:13.604Z,55.30
2023-11-21T07:35:40.124Z,55.64
2023-11-21T07:38:06.730Z,55.49
2023-11-21T07:40:33.312Z,55.55
2023-11-21T07:43:00.667Z,55.75
2023-11-21T07:45:28.925Z,56.06
2023-11-21T07:47:56.729Z,56.00
2023-11-21T07:50:24.251Z,56.14
2023-11-21T07:52:50.955Z,56.04
2023-11-21T07:55:17.511Z,56.28
2023-11-21T07:57:44.036Z,56.25
2023-11-21T08:00:12.631Z,55.92
2023-11-21T08:02:47.441Z,55.97
2023-11-21T08:05:21.667Z,55.86
2023-11-21T08:07:52.068Z,55.82
2023-11-21T08:10:19.020Z,56.05
2023-11-21T08:12:45.602Z,55.80
2023-11-21T08:15:12.205Z,55.81
2023-11-21T08:17:38.864Z,56.21
2023-11-21T08:20:06.060Z,56.14
2023-11-21T08:22:33.427Z,55.94
2023-11-21T08:24:59.995Z,56.06
2023-11-21T08:27:26.661Z,55.87
2023-11-21T08:29:53.586Z,55.88
2023-11-21T08:32:20.255Z,56.00
2023-11-21T08:34:47.876Z,56.30
2023-11-21T08:37:16.673Z,56.31
2023-11-21T08:39:43.278Z,56.18
2023-11-21T08:42:09.783Z,56.41
2023-11-21T08:44:36.320Z,56.40
2023-11-21T08:47:03.927Z,56.29
2023-11-21T08:49:31.427Z,56.41
2023-11-21T08:52:00.364Z,56.50
2023-11-21T08:54:27.478Z,56.30
2023-11-21T08:56:54.586Z,56.30
2023-11-21T08:59:21.334Z,56.38
2023-11-21T09:01:48.273Z,56.31
2023-11-21T09:04:14.863Z,56.38
2023-11-21T09:06:41.403Z,56.68
2023-11-21T09:09:09.579Z,56.48
2023-11-21T09:11:36.949Z,56.83
2023-11-21T09:14:07.530Z,56.76
2023-11-21T09:16:34.567Z,56.50
2023-11-21T09:19:02.964Z,56.60
2023-11-21T09:21:29.904Z,56.49
2023-11-21T09:23:56.395Z,56.86
2023-11-21T09:26:22.954Z,56.71
2023-11-21T09:28:49.585Z,56.81
2023-11-21T09:31:17.507Z,56.59
2023-11-21T09:33:44.534Z,56.98
2023-11-21T09:36:15.118Z,57.00
2023-11-21T09:38:43.176Z,57.00
2023-11-21T09:41:18.549Z,56.97
2023-11-21T09:43:47.287Z,56.56
2023-11-21T09:46:21.190Z,56.61
2023-11-21T09:48:52.894Z,56.80
2023-11-21T09:51:22.090Z,56.44
2023-11-21T09:53:50.945Z,56.80
2023-11-21T09:56:20.490Z,56.44
2023-11-21T09:58:48.564Z,56.47
2023-11-21T10:01:17.505Z,56.81
2023-11-21T10:03:44.568Z,56.81
2023-11-21T10:06:11.177Z,56.84
2023-11-21T10:08:46.649Z,56.50
2023-11-21T10:11:18.755Z,56.51
2023-11-21T10:13:47.250Z,56.66
2023-11-21T10:16:16.021Z,56.87
2023-11-21T10:18:42.619Z,56.80
2023-11-21T10:21:10.421Z,56.80
2023-11-21T10:23:36.926Z,56.92
2023-11-21T10:26:11.034Z,56.57
2023-11-21T10:28:41.994Z,56.96
2023-11-21T10:31:08.917Z,56.71
2023-11-21T10:33:35.483Z,56.96
2023-11-21T10:36:03.641Z,56.69
2023-11-21T10:38:36.473Z,56.78
2023-11-21T10:41:05.976Z,56.67
2023-11-21T10:43:32.773Z,56.42
2023-11-21T10:46:00.998Z,56.40
2023-11-21T10:48:28.359Z,56.32
2023-11-21T10:50:56.030Z,56.44
2023-11-21T10:53:22.677Z,56.47
2023-11-21T10:55:49.747Z,56.45
2023-11-21T10:58:17.883Z,56.31
2023-11-21T11:00:46.733Z,56.15
2023-11-21T11:03:17.278Z,56.19
2023-11-21T11:05:53.644Z,56.05
2023-11-21T11:08:23.931Z,56.04
2023-11-21T11:10:51.998Z,56.02
2023-11-21T11:13:18.731Z,55.81
2023-11-21T11:15:48.459Z,55.74
2023-11-21T11:18:15.196Z,55.83
2023-11-21T11:20:42.358Z,55.86
2023-11-21T11:23:27.830Z,55.98
2023-11-21T11:26:00.595Z,55.75
2023-11-21T11:28:46.128Z,55.47
2023-11-21T11:31:13.114Z,55.76
2023-11-21T11:33:45.940Z,55.59
2023-11-21T11:36:15.531Z,55.88
2023-11-21T11:38:46.526Z,55.64
2023-11-21T11:41:13.258Z,55.88
2023-11-21T11:43:45.925Z,55.87
2023-11-21T11:46:14.670Z,55.62
2023-11-21T11:48:41.607Z,56.01
2023-11-21T11:51:12.840Z,56.05
2023-11-21T11:53:41.245Z,55.98
2023-11-21T11:56:21.214Z,56.17
2023-11-21T11:58:49.025Z,55.81
2023-11-21T12:01:17.731Z,55.84
2023-11-21T12:03:44.989Z,55.90
2023-11-21T12:06:13.038Z,55.95
2023-11-21T12:08:39.614Z,56.17
2023-11-21T12:11:06.398Z,56.14
2023-11-21T12:13:33.066Z,56.26
2023-11-21T12:16:00.055Z,55.85
2023-11-21T12:18:27.653Z,55.75
2023-11-21T12:20:54.374Z,55.74
2023-11-21T12:23:22.154Z,55.61
2023-11-21T12:25:48.703Z,55.63
2023-11-21T12:28:15.545Z,55.79
2023-11-21T12:30:42.133Z,55.70
2023-11-21T12:33:10.731Z,55.55
2023-11-21T12:35:37.735Z,55.79
2023-11-21T12:38:05.000Z,55.77
2023-11-21T12:40:31.711Z,55.41
2023-11-21T12:42:59.992Z,55.54
2023-11-21T12:45:28.584Z,55.77
2023-11-21T12:48:01.316Z,55.38
2023-11-21T12:50:34.834Z,55.75
2023-11-21T12:53:03.819Z,55.48
2023-11-21T12:55:34.228Z,55.66
2023-11-21T12:58:09.973Z,55.65
2023-11-21T13:00:47.358Z,55.63
2023-11-21T13:03:18.681Z,55.60
2023-11-21T13:05:49.233Z,55.25
2023-11-21T13:08:21.121Z,55.20
2023-11-21T13:10:49.980Z,55.24
2023-11-21T13:13:21.562Z,55.03
2023-11-21T13:15:51.707Z,54.86
2023-11-21T13:18:18.322Z,54.72
2023-11-21T13:20:45.309Z,54.61
2023-11-21T13:23:17.076Z,54.89
2023-11-21T13:25:50.931Z,54.87
2023-11-21T13:28:22.938Z,54.68
2023-11-21T13:30:49.895Z,54.63
2023-11-21T13:33:22.870Z,54.75
2023-11-21T13:35:51.457Z,54.93
2023-11-21T13:38:19.461Z,54.95
2023-11-21T13:40:50.825Z,55.09
2023-11-21T13:43:19.466Z,54.67
2023-11-21T13:45:47.267Z,54.94
2023-11-21T13:48:21.185Z,54.73
2023-11-21T13:50:59.081Z,54.83
2023-11-21T13:53:25.983Z,54.57
2023-11-21T13:55:55.534Z,54.95
2023-11-21T13:58:33.952Z,54.83
2023-11-21T14:01:00.504Z,54.45
2023-11-21T14:03:40.632Z,54.77
2023-11-21T14:06:15.571Z,54.69
2023-11-21T14:08:42.705Z,54.84
2023-11-21T14:11:09.421Z,54.82
2023-11-21T14:13:36.022Z,54.70
2023-11-21T14:16:03.685Z,54.80
2023-11-21T14:18:39.877Z,54.85
2023-11-21T14:21:12.661Z,54.92
2023-11-21T14:23:39.705Z,54.88
2023-11-21T14:26:07.521Z,54.90
2023-11-21T14:28:36.282Z,54.59
2023-11-21T14:31:04.297Z,54.71
2023-11-21T14:33:30.808Z,54.66
2023-11-21T14:35:58.833Z,54.83
2023-11-21T14:38:25.422Z,54.53
2023-11-21T14:40:51.958Z,54.47
2023-11-21T14:43:20.313Z,54.83
2023-11-21T14:45:46.899Z,54.40
2023-11-21T14:48:30.279Z,54.40
2023-11-21T14:51:02.843Z,54.37
2023-11-21T14:53:49.595Z,54.54
2023-11-21T14:56:24.359Z,54.74
2023-11-21T14:58:50.901Z,54.35
2023-11-21T15:01:28.113Z,54.70
2023-11-21T15:03:56.610Z,54.39
2023-11-21T15:06:28.293Z,54.39
2023-11-21T15:09:08.109Z,54.43
2023-11-21T15:11:39.833Z,54.41
2023-11-21T15:14:09.462Z,54.39
2023-11-21T15:16:42.650Z,54.39
2023-11-21T15:19:19.109Z,54.33
2023-11-21T15:21:47.181Z,54.34
2023-11-21T15:24:13.864Z,54.46
2023-11-21T15:26:40.608Z,54.78
2023-11-21T15:29:07.269Z,54.63
2023-11-21T15:31:33.873Z,54.40
2023-11-21T15:34:01.306Z,54.64
2023-11-21T15:36:28.158Z,54.63
2023-11-21T15:38:55.108Z,54.63
2023-11-21T15:41:22.470Z,54.36
2023-11-21T15:43:50.304Z,54.68
2023-11-21T15:46:16.927Z,54.31
2023-11-21T15:48:50.775Z,54.35
2023-11-21T15:51:17.926Z,54.41
2023-11-21T15:53:45.465Z,54.41
2023-11-21T15:56:13.855Z,54.37
2023-11-21T15:58:44.028Z,54.59
2023-11-21T16:01:11.222Z,54.77
2023-11-21T16:03:37.968Z,54.61
2023-11-21T16:06:05.701Z,54.62
2023-11-21T16:08:32.559Z,54.63
2023-11-21T16:11:01.247Z,54.55
2023-11-21T16:13:27.893Z,54.82
2023-11-21T16:15:55.440Z,54.69
2023-11-21T16:18:22.757Z,54.68
2023-11-21T16:20:51.560Z,54.87
2023-11-21T16:23:18.185Z,54.90
2023-11-21T16:25:44.930Z,54.87
2023-11-21T16:28:11.491Z,54.67
2023-11-21T16:30:38.028Z,54.86
2023-11-21T16:33:05.019Z,54.75
2023-11-21T16:35:32.566Z,54.68
2023-11-21T16:37:59.155Z,54.79
2023-11-21T16:40:26.048Z,54.99
2023-11-21T16:42:52.591Z,54.87
2023-11-21T16:45:19.124Z,55.11
2023-11-21T16:47:45.841Z,55.03
2023-11-21T16:50:12.425Z,55.10
2023-11-21T16:52:41.753Z,55.18
2023-11-21T16:55:10.497Z,55.07
2023-11-21T16:57:38.576Z,54.81
2023-11-21T17:00:07.982Z,55.03
2023-11-21T17:02:34.862Z,54.78
2023-11-21T17:05:01.537Z,55.04
2023-11-21T17:07:30.411Z,54.86
2023-11-21T17:09:57.046Z,55.13
2023-11-21T17:12:23.748Z,55.17
2023-11-21T17:14:50.492Z,54.84
2023-11-21T17:17:18.208Z,54.81
2023-11-21T17:19:45.384Z,55.09
2023-11-21T17:22:12.737Z,54.98
2023-11-21T17:24:39.805Z,55.28
2023-11-21T17:27:07.432Z,54.88
2023-11-21T17:29:34.124Z,55.23
2023-11-21T17:32:00.898Z,54.94
2023-11-21T17:34:27.472Z,54.92
2023-11-21T17:36:54.593Z,54.83
2023-11-21T17:39:21.150Z,55.14
2023-11-21T17:41:47.690Z,55.09
2023-11-21T17:44:14.375Z,54.86
2023-11-21T17:46:41.030Z,55.22
2023-11-21T17:49:09.773Z,55.16
2023-11-21T17:51:40.513Z,54.87
2023-11-21T17:54:07.509Z,54.80
2023-11-21T17:56:34.026Z,55.08
2023-11-21T17:59:00.713Z,54.98
2023-11-21T18:01:34.736Z,55.10
2023-11-21T18:04:01.536Z,55.26
2023-11-21T18:06:28.134Z,55.08
2023-11-21T18:08:55.220Z,55.10
2023-11-21T18:11:21.874Z,55.34
2023-11-21T18:13:48.566Z,55.37
2023-11-21T18:16:15.471Z,55.05
2023-11-21T18:18:42.005Z,55.11
2023-11-21T18:21:08.524Z,55.11
2023-11-21T18:23:35.677Z,55.31
2023-11-21T18:26:02.245Z,55.46
2023-11-21T18:28:29.121Z,55.08
2023-11-21T18:30:56.702Z,55.14
2023-11-21T18:33:24.150Z,55.11
2023-11-21T18:35:51.143Z,55.14
2023-11-21T18:38:17.655Z,55.18
2023-11-21T18:40:44.364Z,55.33
2023-11-21T18:43:10.929Z,55.14
2023-11-21T18:45:37.495Z,55.43
2023-11-21T18:48:05.305Z,55.51
2023-11-21T18:50:32.021Z,55.14
2023-11-21T18:53:00.127Z,55.50
2023-11-21T18:55:26.768Z,55.32
2023-11-21T18:57:53.296Z,55.56
2023-11-21T19:00:20.204Z,55.47
2023-11-21T19:02:47.102Z,55.49
2023-11-21T19:05:13.807Z,55.38
2023-11-21T19:07:40.483Z,55.33
2023-11-21T19:10:07.297Z,55.13
2023-11-21T19:12:35.355Z,54.73
2023-11-21T19:15:04.946Z,54.70
2023-11-21T19:17:33.876Z,54.95
2023-11-21T19:20:00.667Z,54.58
2023-11-21T19:22:27.293Z,54.80
2023-11-21T19:24:53.906Z,54.40
2023-11-21T19:27:21.410Z,54.52
2023-11-21T19:29:49.348Z,54.40
2023-11-21T19:32:16.184Z,54.40
2023-11-21T19:34:42.829Z,54.77
2023-11-21T19:37:09.427Z,54.45
2023-11-21T19:39:35.989Z,54.70
2023-11-21T19:42:02.823Z,54.44
2023-11-21T19:44:29.378Z,54.43
2023-11-21T19:46:56.918Z,54.77
2023-11-21T19:49:23.543Z,54.49
2023-11-21T19:51:50.867Z,54.47
2023-11-21T19:54:17.407Z,54.52
2023-11-21T19:56:44.777Z,54.94
2023-11-21T19:59:11.419Z,54.59
2023-11-21T20:01:38.013Z,54.73
2023-11-21T20:04:05.832Z,54.78
2023-11-21T20:06:36.903Z,54.99
2023-11-21T20:09:05.700Z,54.80
2023-11-21T20:11:33.024Z,54.94
2023-11-21T20:14:00.948Z,54.57
2023-11-21T20:16:27.627Z,54.63
2023-11-21T20:18:54.145Z,54.70
2023-11-21T20:21:21.931Z,54.97
2023-11-21T20:23:49.381Z,54.86
2023-11-21T20:26:23.633Z,54.96
2023-11-21T20:28:50.740Z,54.86
2023-11-21T20:31:18.933Z,54.58
2023-11-21T20:33:45.698Z,54.92
2023-11-21T20:36:12.285Z,54.88
2023-11-21T20:38:38.800Z,54.55
2023-11-21T20:41:06.278Z,54.86
2023-11-21T20:43:32.988Z,54.74
2023-11-21T20:45:59.572Z,54.54
2023-11-21T20:48:27.788Z,54.82
2023-11-21T20:50:54.446Z,54.43
2023-11-21T20:53:20.960Z,54.42
2023-11-21T20:55:50.585Z,54.69
2023-11-21T20:58:17.355Z,54.55
2023-11-21T21:00:43.897Z,54.59
2023-11-21T21:03:10.948Z,54.63
2023-11-21T21:05:37.856Z,54.20
2023-11-21T21:08:04.788Z,54.27
2023-11-21T21:10:31.418Z,54.04
2023-11-21T21:12:57.970Z,54.26
2023-11-21T21:15:24.622Z,54.07
2023-11-21T21:17:51.206Z,53.92
2023-11-21T21:20:17.899Z,54.20
2023-11-21T21:22:45.257Z,54.19
2023-11-21T21:25:14.237Z,53.93
2023-11-21T21:27:40.917Z,54.17
2023-11-21T21:30:08.215Z,53.86
2023-11-21T21:32:35.148Z,53.91
2023-11-21T21:35:02.129Z,54.16
2023-11-21T21:37:30.373Z,54.12
2023-11-21T21:39:59.715Z,53.93
2023-11-21T21:42:26.291Z,53.79
2023-11-21T21:44:54.305Z,53.70
2023-11-21T21:47:21.209Z,53.89
2023-11-21T21:49:47.817Z,53.86
2023-11-21T21:52:14.378Z,53.80
2023-11-21T21:54:40.922Z,53.94
2023-11-21T21:57:07.409Z,53.68
2023-11-21T21:59:33.985Z,53.80
2023-11-21T22:02:00.689Z,53.68
2023-11-21T22:04:27.786Z,53.85
2023-11-21T22:06:54.399Z,53.67
2023-11-21T22:09:20.939Z,53.63
2023-11-21T22:11:47.509Z,53.78
2023-11-21T22:14:14.066Z,53.81
2023-11-21T22:16:40.585Z,53.93
2023-11-21T22:19:07.476Z,53.57
2023-11-21T22:21:34.100Z,53.91
2023-11-21T22:24:00.682Z,53.96
2023-11-21T22:26:28.228Z,53.57
2023-11-21T22:28:56.838Z,53.56
2023-11-21T22:31:23.373Z,53.85
2023-11-21T22:33:49.930Z,53.73
2023-11-21T22:36:16.780Z,53.74
2023-11-21T22:38:44.504Z,53.73
2023-11-21T22:41:11.154Z,53.50
2023-11-21T22:43:38.045Z,53.62
2023-11-21T22:46:05.116Z,53.33
2023-11-21T22:48:31.901Z,53.51
2023-11-21T22:50:58.441Z,53.25
2023-11-21T22:53:25.996Z,53.57
2023-11-21T22:55:55.502Z,53.27
2023-11-21T22:58:22.166Z,53.52
2023-11-21T23:00:48.857Z,53.37
2023-11-21T23:03:15.774Z,53.29
2023-11-21T23:05:42.788Z,53.52
2023-11-21T23:08:10.438Z,53.65
2023-11-21T23:10:37.336Z,53.24
2023-11-21T23:13:04.053Z,53.32
2023-11-21T23:15:30.802Z,53.31
2023-11-21T23:17:57.559Z,53.63
2023-11-21T23:20:24.377Z,53.57
2023-11-21T23:22:52.108Z,53.49
2023-11-21T23:25:19.352Z,53.39
2023-11-21T23:27:46.429Z,53.60
2023-11-21T23:30:14.259Z,53.37
2023-11-21T23:32:42.528Z,53.63
2023-11-21T23:35:11.901Z,53.54
2023-11-21T23:37:39.959Z,53.71
2023-11-21T23:40:08.305Z,53.41
2023-11-21T23:42:35.689Z,53.79
2023-11-21T23:45:03.733Z,53.51
2023-11-21T23:47:30.986Z,53.70
2023-11-21T23:49:59.541Z,53.72
2023-11-21T23:52:26.304Z,53.83
2023-11-21T23:54:53.367Z,53.75
2023-11-21T23:57:20.001Z,53.85
2023-11-21T23:59:51.378Z,53.75
